Nearby METAR Reports

KLNK - Lincoln, Nebraska, USA
Distance from station: WNW 8mi, 13km
Updated: Mon, 27-Jan-2020 12:54pm CST
Overcast
Overcast
 Wind from N
Wind: N 14 mph , 22 km/h
Temperature: 36°F , 2°C
Wind Chill: 27°F , -3°C
Dew Point: 28°F , -2°C
Humidity: 75%
Barometer: 30.09 inHg , 1019 hPa
Clouds: Overcast
Visibility: 10 miles , 16 km
Cloud details: Mostly Cloudy 1300 ft
Overcast 2100 ft
2020/01/27 18:54 KLNK 271854Z 36012KT 10SM BKN013 OVC021 02/M02 A3009 RMK AO2 SLP202 T00221017
KAHQ - Wahoo, Nebraska, USA
Distance from station: N 31mi, 49km
Updated: Mon, 27-Jan-2020 12:55pm CST
Overcast
Overcast
 Wind from NNW
Wind: NNW 9 mph , 15 km/h
Temperature: 34°F , 1°C
Wind Chill: 27°F , -3°C
Dew Point: 30°F , -1°C
Humidity: 87%
Barometer: 30.09 inHg , 1019 hPa
Clouds: Overcast
Visibility: 10 miles , 16 km
Cloud details: Overcast 1200 ft
2020/01/27 18:55 KAHQ 271855Z AUTO 34008KT 10SM OVC012 01/M01 A3009 RMK AO2 T00111010
 
KBIE - Beatrice Municip, Nebraska, USA
Distance from station: S 36mi, 57km
Updated: Mon, 27-Jan-2020 12:55pm CST
Overcast
Overcast
 Wind from N
Wind: N 9 mph , 15 km/h
Temperature: 37°F , 3°C
Wind Chill: 30°F , -1°C
Dew Point: 32°F , 0°C
Humidity: 81%
Barometer: 30.07 inHg , 1018.3 hPa
Clouds: Overcast
Visibility: 10 miles , 16 km
Cloud details: Overcast 2000 ft
2020/01/27 18:55 KBIE 271855Z AUTO 36008KT 10SM OVC020 03/00 A3007 RMK AO2 T00320000
KMLE - Omaha/Millard, Nebraska, USA
Distance from station: NE 39mi, 63km
Updated: Mon, 27-Jan-2020 12:55pm CST
Overcast
Overcast
 Wind from NW
Wind: NW 8 mph , 13 km/h
Temperature: 37°F , 3°C
Wind Chill: 31°F , -1°C
Dew Point: 30°F , -1°C
Humidity: 75%
Barometer: 30.08 inHg , 1018.6 hPa
Clouds: Overcast
Visibility: 10 miles , 16 km
Cloud details: Overcast 1300 ft
2020/01/27 18:55 KMLE 271855Z AUTO 32007KT 10SM OVC013 03/M01 A3008 RMK AO2 T00251008
 
KPMV - Plattsmouth Muni, Nebraska, USA
Distance from station: ENE 39mi, 63km
Updated: Mon, 27-Jan-2020 12:55pm CST
Overcast
Overcast
 Wind from NW
Wind: NW 8 mph , 13 km/h
Temperature: 36°F , 2°C
Wind Chill: 30°F , -1°C
Dew Point: 34°F , 1°C
Humidity: 93%
Barometer: 30.06 inHg , 1017.9 hPa
Clouds: Overcast
Visibility: 7 miles , 11 km
Cloud details: Overcast 900 ft
2020/01/27 18:55 KPMV 271855Z AUTO 31007KT 7SM OVC009 02/01 A3006 RMK AO2 T00150006
KAFK - Nebraska City, Nebraska, USA
Distance from station: ESE 43mi, 69km
Updated: Mon, 27-Jan-2020 12:55pm CST
Mist, Overcast
Mist, Overcast
 Wind from N
Wind: N 10 mph , 17 km/h
Temperature: 36°F , 2°C
Wind Chill: 29°F , -2°C
Dew Point: 36°F , 2°C
Humidity: 100%
Barometer: 30.06 inHg , 1017.9 hPa
Summary: Mist
Clouds: Overcast
Visibility: 4 miles , 6 km
Cloud details: Overcast 900 ft
2020/01/27 18:55 KAFK 271855Z AUTO 36009KT 4SM BR OVC009 02/02 A3006 RMK AO2 T00200015
 
KOFF - Offutt Afb/Belle, Nebraska, USA
Distance from station: ENE 44mi, 70km
Updated: Mon, 27-Jan-2020 12:56pm CST
Overcast
Overcast
 Wind from WNW
Wind: WNW 8 mph , 13 km/h
Temperature: 36°F , 2°C
Wind Chill: 30°F , -1°C
Dew Point: 30°F , -1°C
Humidity: 81%
Barometer: 30.08 inHg , 1018.6 hPa
Clouds: Overcast
Visibility: 10 miles , 16 km
Cloud details: Overcast 1100 ft
2020/01/27 18:56 KOFF 271856Z 30007KT 10SM OVC011 02/M01 A3008 RMK AO2A SLP201 RVRNO $
KFET - Fremont Muni Arp, Nebraska, USA
Distance from station: N 46mi, 74km
Updated: Mon, 27-Jan-2020 1:00pm CST
unable to load KFET data RC=
unable to load KFET data RC=
 
 
KBTA - Blair Muni, Nebraska, USA
Distance from station: NNE 51mi, 82km
Updated: Mon, 27-Jan-2020 12:55pm CST
Overcast
Overcast
 Wind from WNW
Wind: WNW 7 mph , 11 km/h
Temperature: 34°F , 1°C
Wind Chill: 28°F , -2°C
Dew Point: 30°F , -1°C
Humidity: 87%
Barometer: 30.07 inHg , 1018.3 hPa
Clouds: Overcast
Visibility: 7 miles , 11 km
Cloud details: Overcast 1000 ft
2020/01/27 18:55 KBTA 271855Z AUTO 30006KT 7SM OVC010 01/M01 A3007 RMK AO2 T00101006
KJYR - York, Nebraska, USA
Distance from station: W 52mi, 84km
Updated: Mon, 27-Jan-2020 12:55pm CST
Overcast
Overcast
 Wind from NNE
Wind: NNE 12 mph , 19 km/h
Temperature: 32°F , 0°C
Wind Chill: 23°F , -5°C
Dew Point: 30°F , -1°C
Humidity: 93%
Barometer: 30.08 inHg , 1018.6 hPa
Clouds: Overcast
Visibility: 10 miles , 16 km
Cloud details: Overcast 1000 ft
2020/01/27 18:55 KJYR 271855Z AUTO 02010KT 10SM OVC010 00/M01 A3008 RMK AO2
 
KOMA - Omaha/Eppley, Nebraska, USA
Distance from station: NE 53mi, 85km
Updated: Mon, 27-Jan-2020 12:52pm CST
Overcast
Overcast
 Wind from NNW
Wind: NNW 8 mph , 13 km/h
Temperature: 34°F , 1°C
Wind Chill: 27°F , -3°C
Dew Point: 30°F , -1°C
Humidity: 87%
Barometer: 30.08 inHg , 1018.6 hPa
Clouds: Overcast
Visibility: 7 miles , 11 km
Cloud details: Partly Cloudy 1000 ft
Overcast 1600 ft
2020/01/27 18:52 KOMA 271852Z 34007KT 7SM SCT010 OVC016 01/M01 A3008 RMK AO2 SLP194 T00111006
KOLU - Columbus Muni, Nebraska, USA
Distance from station: NW 58mi, 93km
Updated: Mon, 27-Jan-2020 12:56pm CST
Overcast
Overcast
 Wind from NNW
Wind: NNW 7 mph , 11 km/h
Temperature: 34°F , 1°C
Wind Chill: 28°F , -2°C
Dew Point: 28°F , -2°C
Humidity: 81%
Barometer: 30.10 inHg , 1019.3 hPa
Clouds: Overcast
Visibility: 10 miles , 16 km
Cloud details: Overcast 1200 ft
2020/01/27 18:56 KOLU 271856Z AUTO 33006KT 10SM OVC012 01/M02 A3010 RMK AO2 SLP208 T00111022 FZRANO